sensor_id;sensor_type;location;lat;lon;timestamp;temperature;humidity
78289;DHT22;67539;48.752;12.922;2023-07-16T00:00:27;23.30;88.70
78289;DHT22;67539;48.752;12.922;2023-07-16T00:02:57;23.30;89.00
78289;DHT22;67539;48.752;12.922;2023-07-16T00:05:25;23.20;89.30
78289;DHT22;67539;48.752;12.922;2023-07-16T00:07:55;23.20;89.90
78289;DHT22;67539;48.752;12.922;2023-07-16T00:10:23;23.10;90.30
78289;DHT22;67539;48.752;12.922;2023-07-16T00:12:51;23.10;90.60
78289;DHT22;67539;48.752;12.922;2023-07-16T00:15:19;22.90;91.10
78289;DHT22;67539;48.752;12.922;2023-07-16T00:17:47;22.80;91.50
78289;DHT22;67539;48.752;12.922;2023-07-16T00:20:15;22.70;91.90
78289;DHT22;67539;48.752;12.922;2023-07-16T00:22:43;22.60;92.20
78289;DHT22;67539;48.752;12.922;2023-07-16T00:25:13;22.60;92.60
78289;DHT22;67539;48.752;12.922;2023-07-16T00:27:41;22.60;92.80
78289;DHT22;67539;48.752;12.922;2023-07-16T00:30:09;22.50;92.90
78289;DHT22;67539;48.752;12.922;2023-07-16T00:32:38;22.40;93.20
78289;DHT22;67539;48.752;12.922;2023-07-16T00:35:07;22.40;93.30
78289;DHT22;67539;48.752;12.922;2023-07-16T00:37:36;22.40;93.30
78289;DHT22;67539;48.752;12.922;2023-07-16T00:40:07;22.50;93.20
78289;DHT22;67539;48.752;12.922;2023-07-16T00:42:37;22.60;93.30
78289;DHT22;67539;48.752;12.922;2023-07-16T00:45:10;22.80;93.20
78289;DHT22;67539;48.752;12.922;2023-07-16T00:47:40;23.00;93.20
78289;DHT22;67539;48.752;12.922;2023-07-16T00:50:10;23.20;93.10
78289;DHT22;67539;48.752;12.922;2023-07-16T00:52:39;23.30;92.70
78289;DHT22;67539;48.752;12.922;2023-07-16T00:55:08;23.40;92.40
78289;DHT22;67539;48.752;12.922;2023-07-16T00:57:38;23.50;92.20
78289;DHT22;67539;48.752;12.922;2023-07-16T01:00:09;23.70;91.90
78289;DHT22;67539;48.752;12.922;2023-07-16T01:02:38;23.80;91.80
78289;DHT22;67539;48.752;12.922;2023-07-16T01:05:07;23.80;91.80
78289;DHT22;67539;48.752;12.922;2023-07-16T01:07:37;23.80;91.80
78289;DHT22;67539;48.752;12.922;2023-07-16T01:10:10;23.80;91.70
78289;DHT22;67539;48.752;12.922;2023-07-16T01:12:40;23.90;91.70
78289;DHT22;67539;48.752;12.922;2023-07-16T01:15:09;23.90;92.00
78289;DHT22;67539;48.752;12.922;2023-07-16T01:17:38;23.70;92.20
78289;DHT22;67539;48.752;12.922;2023-07-16T01:20:08;23.70;92.50
78289;DHT22;67539;48.752;12.922;2023-07-16T01:22:58;23.60;92.80
78289;DHT22;67539;48.752;12.922;2023-07-16T01:26:01;23.50;93.00
78289;DHT22;67539;48.752;12.922;2023-07-16T01:28:49;23.40;93.40
78289;DHT22;67539;48.752;12.922;2023-07-16T01:31:22;23.40;93.60
78289;DHT22;67539;48.752;12.922;2023-07-16T01:33:52;23.40;93.70
78289;DHT22;67539;48.752;12.922;2023-07-16T01:36:22;23.40;93.80
78289;DHT22;67539;48.752;12.922;2023-07-16T01:38:50;23.40;94.10
78289;DHT22;67539;48.752;12.922;2023-07-16T01:41:18;23.40;94.00
78289;DHT22;67539;48.752;12.922;2023-07-16T01:43:47;23.40;94.00
78289;DHT22;67539;48.752;12.922;2023-07-16T01:46:15;23.40;93.80
78289;DHT22;67539;48.752;12.922;2023-07-16T01:48:45;23.40;93.30
78289;DHT22;67539;48.752;12.922;2023-07-16T01:51:13;23.40;93.20
78289;DHT22;67539;48.752;12.922;2023-07-16T01:53:41;23.50;93.10
78289;DHT22;67539;48.752;12.922;2023-07-16T01:56:09;23.50;93.00
78289;DHT22;67539;48.752;12.922;2023-07-16T01:58:37;23.50;93.10
78289;DHT22;67539;48.752;12.922;2023-07-16T02:01:06;23.50;93.20
78289;DHT22;67539;48.752;12.922;2023-07-16T02:03:34;23.50;93.30
78289;DHT22;67539;48.752;12.922;2023-07-16T02:06:05;23.50;93.60
78289;DHT22;67539;48.752;12.922;2023-07-16T02:08:33;23.50;93.50
78289;DHT22;67539;48.752;12.922;2023-07-16T02:11:02;23.40;94.00
78289;DHT22;67539;48.752;12.922;2023-07-16T02:13:30;23.20;95.40
78289;DHT22;67539;48.752;12.922;2023-07-16T02:15:58;22.30;99.90
78289;DHT22;67539;48.752;12.922;2023-07-16T02:18:26;21.20;99.90
78289;DHT22;67539;48.752;12.922;2023-07-16T02:20:54;20.30;99.90
78289;DHT22;67539;48.752;12.922;2023-07-16T02:23:24;19.90;99.90
78289;DHT22;67539;48.752;12.922;2023-07-16T02:25:53;19.60;99.90
78289;DHT22;67539;48.752;12.922;2023-07-16T02:28:21;19.50;99.90
78289;DHT22;67539;48.752;12.922;2023-07-16T02:30:49;19.50;99.90
78289;DHT22;67539;48.752;12.922;2023-07-16T02:33:17;19.40;99.90
78289;DHT22;67539;48.752;12.922;2023-07-16T02:35:46;19.40;99.90
78289;DHT22;67539;48.752;12.922;2023-07-16T02:38:15;19.40;99.90
78289;DHT22;67539;48.752;12.922;2023-07-16T02:40:45;19.40;99.90
78289;DHT22;67539;48.752;12.922;2023-07-16T02:43:13;19.40;99.90
78289;DHT22;67539;48.752;12.922;2023-07-16T02:45:41;19.50;99.90
78289;DHT22;67539;48.752;12.922;2023-07-16T02:48:09;19.50;99.90
78289;DHT22;67539;48.752;12.922;2023-07-16T02:50:38;19.50;99.90
78289;DHT22;67539;48.752;12.922;2023-07-16T02:53:07;19.50;99.90
78289;DHT22;67539;48.752;12.922;2023-07-16T02:55:35;19.50;99.90
78289;DHT22;67539;48.752;12.922;2023-07-16T02:58:05;19.50;99.90
78289;DHT22;67539;48.752;12.922;2023-07-16T03:00:33;19.50;99.90
78289;DHT22;67539;48.752;12.922;2023-07-16T03:03:02;19.60;99.90
78289;DHT22;67539;48.752;12.922;2023-07-16T03:05:30;19.50;99.90
78289;DHT22;67539;48.752;12.922;2023-07-16T03:07:58;19.60;99.90
78289;DHT22;67539;48.752;12.922;2023-07-16T03:10:26;19.50;99.90
78289;DHT22;67539;48.752;12.922;2023-07-16T03:12:55;19.50;99.90
78289;DHT22;67539;48.752;12.922;2023-07-16T03:15:24;19.50;99.90
78289;DHT22;67539;48.752;12.922;2023-07-16T03:17:52;19.50;99.90
78289;DHT22;67539;48.752;12.922;2023-07-16T03:20:21;19.60;99.90
78289;DHT22;67539;48.752;12.922;2023-07-16T03:22:49;19.60;99.90
78289;DHT22;67539;48.752;12.922;2023-07-16T03:25:17;19.60;99.90
78289;DHT22;67539;48.752;12.922;2023-07-16T03:27:45;19.50;99.90
78289;DHT22;67539;48.752;12.922;2023-07-16T03:30:13;19.50;99.90
78289;DHT22;67539;48.752;12.922;2023-07-16T03:32:43;19.50;99.90
78289;DHT22;67539;48.752;12.922;2023-07-16T03:35:20;19.60;99.90
78289;DHT22;67539;48.752;12.922;2023-07-16T03:37:52;19.60;99.90
78289;DHT22;67539;48.752;12.922;2023-07-16T03:40:24;19.60;99.90
78289;DHT22;67539;48.752;12.922;2023-07-16T03:42:53;19.60;99.90
78289;DHT22;67539;48.752;12.922;2023-07-16T03:45:24;19.60;99.90
78289;DHT22;67539;48.752;12.922;2023-07-16T03:47:53;19.60;99.90
78289;DHT22;67539;48.752;12.922;2023-07-16T03:50:21;19.60;99.90
78289;DHT22;67539;48.752;12.922;2023-07-16T03:52:49;19.70;99.90
78289;DHT22;67539;48.752;12.922;2023-07-16T03:55:18;19.70;99.90
78289;DHT22;67539;48.752;12.922;2023-07-16T03:57:46;19.60;99.90
78289;DHT22;67539;48.752;12.922;2023-07-16T04:00:14;19.70;99.90
78289;DHT22;67539;48.752;12.922;2023-07-16T04:02:48;19.70;99.90
78289;DHT22;67539;48.752;12.922;2023-07-16T04:05:19;19.70;99.90
78289;DHT22;67539;48.752;12.922;2023-07-16T04:07:50;19.70;99.90
78289;DHT22;67539;48.752;12.922;2023-07-16T04:10:18;19.70;99.90
78289;DHT22;67539;48.752;12.922;2023-07-16T04:12:46;19.70;99.90
78289;DHT22;67539;48.752;12.922;2023-07-16T04:15:15;19.80;99.90
78289;DHT22;67539;48.752;12.922;2023-07-16T04:17:43;19.80;99.90
78289;DHT22;67539;48.752;12.922;2023-07-16T04:20:11;19.80;99.90
78289;DHT22;67539;48.752;12.922;2023-07-16T04:22:40;19.80;99.90
78289;DHT22;67539;48.752;12.922;2023-07-16T04:25:08;19.80;99.90
78289;DHT22;67539;48.752;12.922;2023-07-16T04:27:37;19.80;99.90
78289;DHT22;67539;48.752;12.922;2023-07-16T04:30:07;19.90;99.90
78289;DHT22;67539;48.752;12.922;2023-07-16T04:32:35;19.90;99.90
78289;DHT22;67539;48.752;12.922;2023-07-16T04:35:04;19.90;99.90
78289;DHT22;67539;48.752;12.922;2023-07-16T04:37:32;19.90;99.90
78289;DHT22;67539;48.752;12.922;2023-07-16T04:40:02;19.90;99.90
78289;DHT22;67539;48.752;12.922;2023-07-16T04:42:31;19.90;99.90
78289;DHT22;67539;48.752;12.922;2023-07-16T04:44:59;19.90;99.90
78289;DHT22;67539;48.752;12.922;2023-07-16T04:47:27;20.00;99.90
78289;DHT22;67539;48.752;12.922;2023-07-16T04:49:55;20.00;99.90
78289;DHT22;67539;48.752;12.922;2023-07-16T04:52:25;20.10;99.90
78289;DHT22;67539;48.752;12.922;2023-07-16T04:54:54;20.10;99.90
78289;DHT22;67539;48.752;12.922;2023-07-16T04:57:23;20.20;99.90
78289;DHT22;67539;48.752;12.922;2023-07-16T04:59:51;20.30;99.90
78289;DHT22;67539;48.752;12.922;2023-07-16T05:02:20;20.30;99.90
78289;DHT22;67539;48.752;12.922;2023-07-16T05:04:48;20.30;99.90
78289;DHT22;67539;48.752;12.922;2023-07-16T05:07:16;20.30;99.90
78289;DHT22;67539;48.752;12.922;2023-07-16T05:09:44;20.40;99.90
78289;DHT22;67539;48.752;12.922;2023-07-16T05:12:12;20.40;99.90
78289;DHT22;67539;48.752;12.922;2023-07-16T05:14:46;20.40;99.90
78289;DHT22;67539;48.752;12.922;2023-07-16T05:17:14;20.50;99.90
78289;DHT22;67539;48.752;12.922;2023-07-16T05:19:43;20.50;99.90
78289;DHT22;67539;48.752;12.922;2023-07-16T05:22:11;20.50;99.90
78289;DHT22;67539;48.752;12.922;2023-07-16T05:24:40;20.60;99.90
78289;DHT22;67539;48.752;12.922;2023-07-16T05:27:08;20.60;99.90
78289;DHT22;67539;48.752;12.922;2023-07-16T05:29:36;20.60;99.90
78289;DHT22;67539;48.752;12.922;2023-07-16T05:32:06;20.70;99.90
78289;DHT22;67539;48.752;12.922;2023-07-16T05:34:34;20.60;99.90
78289;DHT22;67539;48.752;12.922;2023-07-16T05:37:03;20.70;99.90
78289;DHT22;67539;48.752;12.922;2023-07-16T05:39:31;20.70;99.90
78289;DHT22;67539;48.752;12.922;2023-07-16T05:41:59;20.70;99.90
78289;DHT22;67539;48.752;12.922;2023-07-16T05:44:29;20.80;99.90
78289;DHT22;67539;48.752;12.922;2023-07-16T05:46:57;20.80;99.90
78289;DHT22;67539;48.752;12.922;2023-07-16T05:49:27;20.80;99.90
78289;DHT22;67539;48.752;12.922;2023-07-16T05:51:55;20.90;99.90
78289;DHT22;67539;48.752;12.922;2023-07-16T05:54:23;21.00;99.90
78289;DHT22;67539;48.752;12.922;2023-07-16T05:56:51;21.00;99.90
78289;DHT22;67539;48.752;12.922;2023-07-16T05:59:20;21.00;99.90
78289;DHT22;67539;48.752;12.922;2023-07-16T06:01:48;21.10;99.90
78289;DHT22;67539;48.752;12.922;2023-07-16T06:04:16;21.10;99.90
78289;DHT22;67539;48.752;12.922;2023-07-16T06:06:45;21.10;99.90
78289;DHT22;67539;48.752;12.922;2023-07-16T06:09:17;21.10;99.90
78289;DHT22;67539;48.752;12.922;2023-07-16T06:11:46;21.20;99.90
78289;DHT22;67539;48.752;12.922;2023-07-16T06:14:14;21.20;99.90
78289;DHT22;67539;48.752;12.922;2023-07-16T06:16:42;21.20;99.90
78289;DHT22;67539;48.752;12.922;2023-07-16T06:19:11;21.20;99.90
78289;DHT22;67539;48.752;12.922;2023-07-16T06:21:39;21.20;99.90
78289;DHT22;67539;48.752;12.922;2023-07-16T06:24:08;21.20;99.90
78289;DHT22;67539;48.752;12.922;2023-07-16T06:26:38;21.20;99.90
78289;DHT22;67539;48.752;12.922;2023-07-16T06:29:06;21.30;99.90
78289;DHT22;67539;48.752;12.922;2023-07-16T06:31:34;21.30;99.90
78289;DHT22;67539;48.752;12.922;2023-07-16T06:34:03;21.30;99.90
78289;DHT22;67539;48.752;12.922;2023-07-16T06:36:31;21.30;99.90
78289;DHT22;67539;48.752;12.922;2023-07-16T06:38:59;21.30;99.90
78289;DHT22;67539;48.752;12.922;2023-07-16T06:41:29;21.40;99.90
78289;DHT22;67539;48.752;12.922;2023-07-16T06:43:58;21.40;99.90
78289;DHT22;67539;48.752;12.922;2023-07-16T06:46:27;21.40;99.90
78289;DHT22;67539;48.752;12.922;2023-07-16T06:48:55;21.50;99.90
78289;DHT22;67539;48.752;12.922;2023-07-16T06:51:23;21.60;99.90
78289;DHT22;67539;48.752;12.922;2023-07-16T06:53:51;21.60;99.90
78289;DHT22;67539;48.752;12.922;2023-07-16T06:56:19;21.70;99.90
78289;DHT22;67539;48.752;12.922;2023-07-16T06:58:48;21.70;99.90
78289;DHT22;67539;48.752;12.922;2023-07-16T07:01:17;21.80;99.90
78289;DHT22;67539;48.752;12.922;2023-07-16T07:03:45;21.90;99.90
78289;DHT22;67539;48.752;12.922;2023-07-16T07:06:13;21.90;99.90
78289;DHT22;67539;48.752;12.922;2023-07-16T07:08:42;21.90;99.90
78289;DHT22;67539;48.752;12.922;2023-07-16T07:11:10;21.90;99.90
78289;DHT22;67539;48.752;12.922;2023-07-16T07:13:38;21.90;99.90
78289;DHT22;67539;48.752;12.922;2023-07-16T07:16:07;21.90;99.90
78289;DHT22;67539;48.752;12.922;2023-07-16T07:18:35;21.90;99.90
78289;DHT22;67539;48.752;12.922;2023-07-16T07:21:03;21.80;99.90
78289;DHT22;67539;48.752;12.922;2023-07-16T07:23:31;21.70;99.90
78289;DHT22;67539;48.752;12.922;2023-07-16T07:25:59;21.70;99.90
78289;DHT22;67539;48.752;12.922;2023-07-16T07:28:27;21.60;99.90
78289;DHT22;67539;48.752;12.922;2023-07-16T07:30:55;21.60;99.90
78289;DHT22;67539;48.752;12.922;2023-07-16T07:33:25;21.50;99.90
78289;DHT22;67539;48.752;12.922;2023-07-16T07:35:53;21.50;99.90
78289;DHT22;67539;48.752;12.922;2023-07-16T07:38:21;21.50;99.90
78289;DHT22;67539;48.752;12.922;2023-07-16T07:40:49;21.50;99.90
78289;DHT22;67539;48.752;12.922;2023-07-16T07:43:18;21.50;99.90
78289;DHT22;67539;48.752;12.922;2023-07-16T07:45:46;21.40;99.90
78289;DHT22;67539;48.752;12.922;2023-07-16T07:48:14;21.40;99.90
78289;DHT22;67539;48.752;12.922;2023-07-16T07:50:43;21.40;99.90
78289;DHT22;67539;48.752;12.922;2023-07-16T07:53:11;21.30;99.90
78289;DHT22;67539;48.752;12.922;2023-07-16T07:55:41;21.30;99.90
78289;DHT22;67539;48.752;12.922;2023-07-16T07:58:09;21.40;99.90
78289;DHT22;67539;48.752;12.922;2023-07-16T08:00:38;21.40;99.90
78289;DHT22;67539;48.752;12.922;2023-07-16T08:03:06;21.50;99.90
78289;DHT22;67539;48.752;12.922;2023-07-16T08:05:34;21.50;99.90
78289;DHT22;67539;48.752;12.922;2023-07-16T08:08:04;21.60;99.90
78289;DHT22;67539;48.752;12.922;2023-07-16T08:10:32;21.70;99.90
78289;DHT22;67539;48.752;12.922;2023-07-16T08:13:00;21.80;99.90
78289;DHT22;67539;48.752;12.922;2023-07-16T08:15:28;21.90;99.90
78289;DHT22;67539;48.752;12.922;2023-07-16T08:17:56;21.90;99.90
78289;DHT22;67539;48.752;12.922;2023-07-16T08:20:27;22.00;99.90
78289;DHT22;67539;48.752;12.922;2023-07-16T08:22:55;22.00;99.90
78289;DHT22;67539;48.752;12.922;2023-07-16T08:25:24;22.00;99.90
78289;DHT22;67539;48.752;12.922;2023-07-16T08:27:53;22.10;99.90
78289;DHT22;67539;48.752;12.922;2023-07-16T08:30:22;22.10;99.90
78289;DHT22;67539;48.752;12.922;2023-07-16T08:32:50;22.10;99.90
78289;DHT22;67539;48.752;12.922;2023-07-16T08:35:19;22.10;99.90
78289;DHT22;67539;48.752;12.922;2023-07-16T08:37:47;22.00;99.90
78289;DHT22;67539;48.752;12.922;2023-07-16T08:40:15;22.00;99.90
78289;DHT22;67539;48.752;12.922;2023-07-16T08:42:45;22.00;99.90
78289;DHT22;67539;48.752;12.922;2023-07-16T08:45:15;22.00;99.90
78289;DHT22;67539;48.752;12.922;2023-07-16T08:47:43;21.90;99.90
78289;DHT22;67539;48.752;12.922;2023-07-16T08:50:11;21.90;99.90
78289;DHT22;67539;48.752;12.922;2023-07-16T08:52:40;22.10;99.90
78289;DHT22;67539;48.752;12.922;2023-07-16T08:55:08;22.20;99.90
78289;DHT22;67539;48.752;12.922;2023-07-16T08:57:36;22.20;99.90
78289;DHT22;67539;48.752;12.922;2023-07-16T09:00:08;22.30;99.90
78289;DHT22;67539;48.752;12.922;2023-07-16T09:02:37;22.20;99.90
78289;DHT22;67539;48.752;12.922;2023-07-16T09:05:06;22.20;99.90
78289;DHT22;67539;48.752;12.922;2023-07-16T09:07:39;22.20;99.90
78289;DHT22;67539;48.752;12.922;2023-07-16T09:10:08;22.40;99.90
78289;DHT22;67539;48.752;12.922;2023-07-16T09:12:42;22.40;99.90
78289;DHT22;67539;48.752;12.922;2023-07-16T09:15:16;22.50;99.90
78289;DHT22;67539;48.752;12.922;2023-07-16T09:17:47;22.60;99.90
78289;DHT22;67539;48.752;12.922;2023-07-16T09:20:15;22.70;99.90
78289;DHT22;67539;48.752;12.922;2023-07-16T09:22:44;22.50;99.90
78289;DHT22;67539;48.752;12.922;2023-07-16T09:25:12;22.60;99.90
78289;DHT22;67539;48.752;12.922;2023-07-16T09:27:40;22.60;99.90
78289;DHT22;67539;48.752;12.922;2023-07-16T09:30:16;22.80;99.90
78289;DHT22;67539;48.752;12.922;2023-07-16T09:32:44;23.00;99.90
78289;DHT22;67539;48.752;12.922;2023-07-16T09:35:14;23.10;99.90
78289;DHT22;67539;48.752;12.922;2023-07-16T09:37:43;23.30;99.90
78289;DHT22;67539;48.752;12.922;2023-07-16T09:40:12;23.30;99.90
78289;DHT22;67539;48.752;12.922;2023-07-16T09:42:41;23.30;99.90
78289;DHT22;67539;48.752;12.922;2023-07-16T09:45:16;23.20;99.90
78289;DHT22;67539;48.752;12.922;2023-07-16T09:47:45;23.30;99.90
78289;DHT22;67539;48.752;12.922;2023-07-16T09:50:14;23.40;99.90
78289;DHT22;67539;48.752;12.922;2023-07-16T09:52:43;23.70;99.90
78289;DHT22;67539;48.752;12.922;2023-07-16T09:55:11;23.90;99.90
78289;DHT22;67539;48.752;12.922;2023-07-16T09:57:42;24.00;99.00
78289;DHT22;67539;48.752;12.922;2023-07-16T10:00:12;23.90;99.20
78289;DHT22;67539;48.752;12.922;2023-07-16T10:02:42;24.00;99.00
78289;DHT22;67539;48.752;12.922;2023-07-16T10:05:14;24.10;99.10
78289;DHT22;67539;48.752;12.922;2023-07-16T10:07:43;24.20;99.60
78289;DHT22;67539;48.752;12.922;2023-07-16T10:10:11;24.20;98.70
78289;DHT22;67539;48.752;12.922;2023-07-16T10:12:41;24.30;99.00
78289;DHT22;67539;48.752;12.922;2023-07-16T10:15:12;24.30;98.80
78289;DHT22;67539;48.752;12.922;2023-07-16T10:17:50;24.30;98.50
78289;DHT22;67539;48.752;12.922;2023-07-16T10:20:28;24.20;98.60
78289;DHT22;67539;48.752;12.922;2023-07-16T10:22:57;24.10;99.10
78289;DHT22;67539;48.752;12.922;2023-07-16T10:25:26;24.30;99.70
78289;DHT22;67539;48.752;12.922;2023-07-16T10:27:56;24.50;99.50
78289;DHT22;67539;48.752;12.922;2023-07-16T10:30:25;24.60;98.60
78289;DHT22;67539;48.752;12.922;2023-07-16T10:32:53;24.80;98.30
78289;DHT22;67539;48.752;12.922;2023-07-16T10:35:23;24.90;99.00
78289;DHT22;67539;48.752;12.922;2023-07-16T10:37:51;25.00;98.30
78289;DHT22;67539;48.752;12.922;2023-07-16T10:40:19;25.20;98.30
78289;DHT22;67539;48.752;12.922;2023-07-16T10:42:47;25.40;98.10
78289;DHT22;67539;48.752;12.922;2023-07-16T10:45:16;25.40;97.90
78289;DHT22;67539;48.752;12.922;2023-07-16T10:47:51;25.50;97.30
78289;DHT22;67539;48.752;12.922;2023-07-16T10:50:20;25.40;96.10
78289;DHT22;67539;48.752;12.922;2023-07-16T10:52:52;25.20;96.10
78289;DHT22;67539;48.752;12.922;2023-07-16T10:55:21;25.20;96.70
78289;DHT22;67539;48.752;12.922;2023-07-16T10:57:51;25.30;97.30
78289;DHT22;67539;48.752;12.922;2023-07-16T11:00:21;25.50;96.80
78289;DHT22;67539;48.752;12.922;2023-07-16T11:02:50;25.70;97.20
78289;DHT22;67539;48.752;12.922;2023-07-16T11:05:19;25.90;97.20
78289;DHT22;67539;48.752;12.922;2023-07-16T11:07:49;26.10;96.60
78289;DHT22;67539;48.752;12.922;2023-07-16T11:10:23;26.30;97.60
78289;DHT22;67539;48.752;12.922;2023-07-16T11:12:52;26.40;96.10
78289;DHT22;67539;48.752;12.922;2023-07-16T11:15:30;26.50;95.00
78289;DHT22;67539;48.752;12.922;2023-07-16T11:17:59;26.70;95.20
78289;DHT22;67539;48.752;12.922;2023-07-16T11:20:29;26.70;94.50
78289;DHT22;67539;48.752;12.922;2023-07-16T11:22:58;26.60;94.00
78289;DHT22;67539;48.752;12.922;2023-07-16T11:25:29;26.60;93.70
78289;DHT22;67539;48.752;12.922;2023-07-16T11:27:57;26.40;93.10
78289;DHT22;67539;48.752;12.922;2023-07-16T11:30:27;26.40;93.70
78289;DHT22;67539;48.752;12.922;2023-07-16T11:32:58;26.40;93.20
78289;DHT22;67539;48.752;12.922;2023-07-16T11:35:27;26.40;93.50
78289;DHT22;67539;48.752;12.922;2023-07-16T11:37:55;26.30;93.00
78289;DHT22;67539;48.752;12.922;2023-07-16T11:40:24;26.30;92.90
78289;DHT22;67539;48.752;12.922;2023-07-16T11:42:54;26.30;92.70
78289;DHT22;67539;48.752;12.922;2023-07-16T11:45:23;26.40;94.10
78289;DHT22;67539;48.752;12.922;2023-07-16T11:47:53;26.50;92.50
78289;DHT22;67539;48.752;12.922;2023-07-16T11:50:22;26.50;92.80
78289;DHT22;67539;48.752;12.922;2023-07-16T11:52:54;26.60;93.50
78289;DHT22;67539;48.752;12.922;2023-07-16T11:55:22;26.70;92.20
78289;DHT22;67539;48.752;12.922;2023-07-16T11:57:51;26.70;91.80
78289;DHT22;67539;48.752;12.922;2023-07-16T12:00:20;26.70;91.80
78289;DHT22;67539;48.752;12.922;2023-07-16T12:02:48;26.70;91.50
78289;DHT22;67539;48.752;12.922;2023-07-16T12:05:27;26.70;92.00
78289;DHT22;67539;48.752;12.922;2023-07-16T12:08:15;26.80;91.60
78289;DHT22;67539;48.752;12.922;2023-07-16T12:10:43;26.90;91.70
78289;DHT22;67539;48.752;12.922;2023-07-16T12:13:11;27.10;92.00
78289;DHT22;67539;48.752;12.922;2023-07-16T12:15:41;27.20;90.90
78289;DHT22;67539;48.752;12.922;2023-07-16T12:18:09;27.20;91.00
78289;DHT22;67539;48.752;12.922;2023-07-16T12:20:37;27.30;90.70
78289;DHT22;67539;48.752;12.922;2023-07-16T12:23:07;27.30;89.80
78289;DHT22;67539;48.752;12.922;2023-07-16T12:25:35;27.30;90.20
78289;DHT22;67539;48.752;12.922;2023-07-16T12:28:04;27.30;90.50
78289;DHT22;67539;48.752;12.922;2023-07-16T12:30:31;27.50;89.80
78289;DHT22;67539;48.752;12.922;2023-07-16T12:33:01;27.60;90.20
78289;DHT22;67539;48.752;12.922;2023-07-16T12:35:31;27.70;90.10
78289;DHT22;67539;48.752;12.922;2023-07-16T12:37:59;27.80;89.90
78289;DHT22;67539;48.752;12.922;2023-07-16T12:40:29;27.90;88.10
78289;DHT22;67539;48.752;12.922;2023-07-16T12:42:57;28.10;87.60
78289;DHT22;67539;48.752;12.922;2023-07-16T12:45:25;28.10;86.60
78289;DHT22;67539;48.752;12.922;2023-07-16T12:47:53;27.90;87.30
78289;DHT22;67539;48.752;12.922;2023-07-16T12:50:23;27.90;85.30
78289;DHT22;67539;48.752;12.922;2023-07-16T12:52:52;27.90;85.70
78289;DHT22;67539;48.752;12.922;2023-07-16T12:55:20;27.90;86.80
78289;DHT22;67539;48.752;12.922;2023-07-16T12:57:48;28.00;85.20
78289;DHT22;67539;48.752;12.922;2023-07-16T13:00:16;28.20;87.20
78289;DHT22;67539;48.752;12.922;2023-07-16T13:02:44;28.40;88.40
78289;DHT22;67539;48.752;12.922;2023-07-16T13:05:12;28.80;89.70
78289;DHT22;67539;48.752;12.922;2023-07-16T13:07:42;29.20;89.40
78289;DHT22;67539;48.752;12.922;2023-07-16T13:10:10;29.50;86.40
78289;DHT22;67539;48.752;12.922;2023-07-16T13:12:49;29.80;84.30
78289;DHT22;67539;48.752;12.922;2023-07-16T13:15:17;30.00;80.80
78289;DHT22;67539;48.752;12.922;2023-07-16T13:17:46;30.10;80.60
78289;DHT22;67539;48.752;12.922;2023-07-16T13:20:15;30.40;81.00
78289;DHT22;67539;48.752;12.922;2023-07-16T13:22:44;30.70;80.60
78289;DHT22;67539;48.752;12.922;2023-07-16T13:25:13;31.00;80.50
78289;DHT22;67539;48.752;12.922;2023-07-16T13:27:41;31.20;75.50
78289;DHT22;67539;48.752;12.922;2023-07-16T13:30:09;31.00;73.80
78289;DHT22;67539;48.752;12.922;2023-07-16T13:32:38;30.90;77.10
78289;DHT22;67539;48.752;12.922;2023-07-16T13:35:07;31.00;78.30
78289;DHT22;67539;48.752;12.922;2023-07-16T13:37:35;30.80;74.00
78289;DHT22;67539;48.752;12.922;2023-07-16T13:40:06;30.60;76.00
78289;DHT22;67539;48.752;12.922;2023-07-16T13:42:35;30.50;73.40
78289;DHT22;67539;48.752;12.922;2023-07-16T13:45:04;30.30;75.00
78289;DHT22;67539;48.752;12.922;2023-07-16T13:47:32;30.00;74.40
78289;DHT22;67539;48.752;12.922;2023-07-16T13:50:00;29.60;75.30
78289;DHT22;67539;48.752;12.922;2023-07-16T13:52:28;29.50;75.80
78289;DHT22;67539;48.752;12.922;2023-07-16T13:54:56;29.60;76.20
78289;DHT22;67539;48.752;12.922;2023-07-16T13:57:27;29.60;75.70
78289;DHT22;67539;48.752;12.922;2023-07-16T13:59:55;29.80;75.60
78289;DHT22;67539;48.752;12.922;2023-07-16T14:02:23;30.10;75.10
78289;DHT22;67539;48.752;12.922;2023-07-16T14:04:51;30.40;74.40
78289;DHT22;67539;48.752;12.922;2023-07-16T14:07:20;30.80;72.70
78289;DHT22;67539;48.752;12.922;2023-07-16T14:09:48;31.10;71.60
78289;DHT22;67539;48.752;12.922;2023-07-16T14:12:16;30.90;72.20
78289;DHT22;67539;48.752;12.922;2023-07-16T14:14:46;31.60;70.60
78289;DHT22;67539;48.752;12.922;2023-07-16T14:17:14;32.30;68.30
78289;DHT22;67539;48.752;12.922;2023-07-16T14:19:42;32.50;66.80
78289;DHT22;67539;48.752;12.922;2023-07-16T14:22:10;33.00;64.80
78289;DHT22;67539;48.752;12.922;2023-07-16T14:24:40;33.20;64.20
78289;DHT22;67539;48.752;12.922;2023-07-16T14:27:08;33.40;63.80
78289;DHT22;67539;48.752;12.922;2023-07-16T14:29:36;33.50;63.30
78289;DHT22;67539;48.752;12.922;2023-07-16T14:32:22;34.30;62.00
78289;DHT22;67539;48.752;12.922;2023-07-16T14:34:50;35.30;59.60
78289;DHT22;67539;48.752;12.922;2023-07-16T14:37:18;36.00;58.60
78289;DHT22;67539;48.752;12.922;2023-07-16T14:39:46;36.60;56.40
78289;DHT22;67539;48.752;12.922;2023-07-16T14:42:14;35.90;56.00
78289;DHT22;67539;48.752;12.922;2023-07-16T14:44:42;35.70;57.30
78289;DHT22;67539;48.752;12.922;2023-07-16T14:47:10;35.40;56.00
78289;DHT22;67539;48.752;12.922;2023-07-16T14:49:39;34.50;57.30
78289;DHT22;67539;48.752;12.922;2023-07-16T14:52:07;34.70;57.70
78289;DHT22;67539;48.752;12.922;2023-07-16T14:54:35;35.30;56.40
78289;DHT22;67539;48.752;12.922;2023-07-16T14:57:04;35.80;56.30
78289;DHT22;67539;48.752;12.922;2023-07-16T14:59:32;36.10;55.00
78289;DHT22;67539;48.752;12.922;2023-07-16T15:02:01;36.00;54.00
78289;DHT22;67539;48.752;12.922;2023-07-16T15:04:30;36.10;54.40
78289;DHT22;67539;48.752;12.922;2023-07-16T15:06:59;35.60;54.60
78289;DHT22;67539;48.752;12.922;2023-07-16T15:09:27;35.80;54.00
78289;DHT22;67539;48.752;12.922;2023-07-16T15:11:56;35.70;53.80
78289;DHT22;67539;48.752;12.922;2023-07-16T15:14:24;36.30;53.10
78289;DHT22;67539;48.752;12.922;2023-07-16T15:16:52;36.50;53.20
78289;DHT22;67539;48.752;12.922;2023-07-16T15:19:20;36.70;53.30
78289;DHT22;67539;48.752;12.922;2023-07-16T15:21:48;36.20;52.50
78289;DHT22;67539;48.752;12.922;2023-07-16T15:24:18;36.00;52.20
78289;DHT22;67539;48.752;12.922;2023-07-16T15:26:46;35.80;53.20